Prentiss Township, Maine
Current Conditions -  °F | °C
As of 9:53 PM on Friday 19 Dec 2014 (Local Time) from KBGR Reporting Station
Clear Clear  
Wind Chill: 11°   Ceiling: Unl
Heat Index: 20°   Visibility: 10mi
Dew Point: 17°   Wind: 7mph
Humidity: 89%   Direction: 320°NW
Pressure: 30.11"   Gusts: NA
Location:  45.3189°N, 68.0613°W
Report Text: KBGR 200253Z 32006KT 10SM CLR M07/M08 A3011 RMK AO2 SLP201 T10671083 51028
Loading
Personal Weather Stations






























Interactive Weather Map New forecast layout! Learn more

10-Day Weather Forecast

Advertisements
Track Severe Weather on mobile